• Join FlightAware (Why Join?)
  • Login
  • US Flag 
01:42AM EDT


 

Airport Tracker/Info


-or-


 

Live Flight TrackerFlight Track Log ✈ SWA1728 ✈ 24-Apr-2013 ✈ KDEN - KMDW

Flight Track Log - Related Links

Times and Time Zones

All times are in EDT time to prevent confusion due to time zone crossing. See the SWA1728 flight status page for this flight to view local times or setup timezone preferences in your user account.

Time Position Orientation Groundspeed Altitude Reporting Facility
EDT Latitude Longitude Course Direction KTS MPH feet Rate Location/Type
06:06PM 39.9167 -104.6667 21° North 189 217 6,700  Level Denver TRACON
06:06PM 39.9422 -104.6542 21° North 207 238 7,600 2,700 Climbing Denver Center
06:08PM 40.0333 -104.5667 36° Northeast 287 330 12,200 3,000 Climbing Denver TRACON
06:09PM 40.0500 -104.4333 81° East 323 372 15,800 2,520 Climbing Denver TRACON
06:10PM 40.0136 -104.2650 106° East 354 407 18,900 1,800 Climbing Denver Center
06:11PM 39.9806 -104.1267 107° East 401 461 20,300 1,860 Climbing Denver Center
06:12PM 39.9414 -103.9658 108° East 430 495 22,800 1,920 Climbing Denver Center
06:14PM 39.9064 -103.8278 108° East 433 498 24,800 1,620 Climbing Denver Center
06:15PM 39.8975 -103.6117 93° East 454 522 26,800 1,740 Climbing Denver Center
06:16PM 39.9197 -103.4147 82° East 466 536 28,800 1,560 Climbing Denver Center
06:17PM 39.9403 -103.2414 81° East 478 550 30,100 1,560 Climbing Denver Center
06:18PM 39.9583 -103.0667 82° East 483 556 32,100 1,740 Climbing Denver Center
06:19PM 39.9808 -102.8642 82° East 480 552 33,800 1,560 Climbing Denver Center
06:20PM 39.9992 -102.6867 82° East 481 554 35,400 1,080 Climbing Denver Center
06:21PM 40.0192 -102.5217 81° East 482 555 36,100 720 Climbing Denver Center
06:22PM 40.0389 -102.3211 83° East 497 572 37,000 420 Climbing Denver Center
06:23PM 40.0572 -102.1483 82° East 502 578 37,000  Level Denver Center
06:24PM 40.0761 -101.9472 83° East 501 577 37,000  Level Denver Center
06:25PM 40.0953 -101.7756 82° East 502 578 37,000  Level Denver Center
06:26PM 40.1097 -101.6008 84° East 504 580 37,000  Level Denver Center
06:27PM 40.1294 -101.3967 83° East 507 583 37,000  Level Denver Center
06:28PM 40.1464 -101.2242 83° East 505 581 37,000  Level Denver Center
06:29PM 40.1650 -101.0211 83° East 506 582 37,000  Level Denver Center
06:30PM 40.1808 -100.8447 83° East 511 588 37,000  Level Denver Center
06:31PM 40.1992 -100.6400 83° East 510 587 37,000  Level Denver Center
06:32PM 40.2067 -100.4650 87° East 509 586 37,000  Level Denver Center
06:33PM 40.2094 -100.2611 89° East 506 582 37,000  Level Denver Center
06:34PM 40.2119 -100.0847 89° East 509 586 37,000  Level Denver Center
06:35PM 40.2144 -99.8836 89° East 507 583 37,000  Level Denver Center
06:36PM 40.2167 -99.7014 89° East 504 580 37,000  Level Denver Center
06:38PM 40.2181 -99.5178 89° East 506 582 37,000  Level Denver Center
06:39PM 40.2203 -99.2950 89° East 512 589 37,000  Level Denver Center
06:40PM 40.2217 -99.1100 89° East 510 587 37,000  Level Denver Center
06:41PM 40.2228 -98.9256 89° East 510 587 37,000  Level Denver Center
06:42PM 40.2228 -98.7397 90° East 513 590 37,000  Level Minneapolis Center
06:43PM 40.2231 -98.5564 90° East 511 588 37,000  Level Minneapolis Center
06:44PM 40.2228 -98.3706 90° East 511 588 37,000  Level Minneapolis Center
06:45PM 40.2217 -98.1858 90° East 511 588 37,000  Level Minneapolis Center
06:46PM 40.2217 -98.0006 90° East 511 588 37,000  Level Minneapolis Center
06:47PM 40.2206 -97.8153 90° East 510 587 37,000  Level Minneapolis Center
06:48PM 40.2197 -97.5942 90° East 510 587 37,000  Level Minneapolis Center
06:49PM 40.2178 -97.4097 91° East 509 586 37,000  Level Minneapolis Center
06:50PM 40.2158 -97.2456 91° East 510 587 37,000  Level Minneapolis Center
06:51PM 40.2136 -97.0239 91° East 510 587 37,000  Level Minneapolis Center
06:52PM 40.2111 -96.8364 91° East 516 594 37,000  Level Minneapolis Center
06:53PM 40.2078 -96.6472 91° East 521 600 37,000  Level Minneapolis Center
06:54PM 40.2044 -96.4553 91° East 527 606 37,000  Level Minneapolis Center
06:55PM 40.2017 -96.2644 91° East 527 606 37,000  Level Minneapolis Center
06:56PM 40.2317 -96.0400 80° East 529 609 37,000  Level Minneapolis Center
06:57PM 40.2664 -95.8531 76° East 530 610 37,000  Level Minneapolis Center
06:58PM 40.2994 -95.6661 77° East 531 611 37,000  Level Minneapolis Center
06:59PM 40.3342 -95.4822 76° East 526 605 37,000  Level Minneapolis Center
07:00PM 40.3672 -95.2961 77° East 527 606 37,000  Level Minneapolis Center
07:01PM 40.4006 -95.1092 77° East 527 606 37,000  Level Minneapolis Center
07:02PM 40.4408 -94.8875 77° East 525 604 37,000  Level Minneapolis Center
07:03PM 40.4731 -94.7011 77° East 525 604 37,000  Level Minneapolis Center
07:04PM 40.5078 -94.5000 77° East 525 604 37,000  Level Minneapolis Center
07:05PM 40.5397 -94.3139 77° East 525 604 37,000  Level Minneapolis Center
07:06PM 40.5694 -94.1283 78° East 523 602 37,000  Level Minneapolis Center
07:07PM 40.5997 -93.9428 78° East 522 601 37,000  Level Minneapolis Center
07:08PM 40.6278 -93.7561 79° East 524 603 37,000  Level Minneapolis Center
07:09PM 40.6550 -93.5692 79° East 523 602 37,000  Level Minneapolis Center
07:10PM 40.6861 -93.3439 80° East 523 602 37,000  Level Minneapolis Center
07:12PM 40.7142 -93.1556 79° East 526 605 37,000  Level Minneapolis Center
07:13PM 40.7406 -92.9656 80° East 527 606 37,000 -180 Level Minneapolis Center
07:13PM 40.7608 -92.8133 80° East 524 603 36,700 -720 Descending Chicago Center
07:14PM 40.7878 -92.6236 79° East 524 603 35,700 -1,020 Descending Chicago Center
07:15PM 40.8136 -92.4328 80° East 527 606 34,700 -960 Descending Chicago Center
07:16PM 40.8394 -92.2422 80° East 528 608 33,800 -840 Descending Chicago Center
07:17PM 40.8694 -92.0111 80° East 532 612 33,000 -420 Descending Chicago Center
07:19PM 40.8947 -91.8222 80° East 527 606 33,000  Level Chicago Center
07:20PM 40.9186 -91.6364 80° East 517 595 33,000  Level Chicago Center
07:21PM 40.9425 -91.4444 81° East 528 608 33,000 -300 Level Chicago Center
07:22PM 40.9653 -91.2592 81° East 535 616 32,400 -1,860 Descending Chicago Center
07:23PM 40.9933 -91.0372 80° East 512 589 29,200 -2,940 Descending Chicago Center
07:24PM 41.0161 -90.8542 81° East 507 583 26,400 -2,520 Descending Chicago Center
07:25PM 41.0364 -90.6811 81° East 484 557 24,100 -1,560 Descending Chicago Center
07:26PM 41.0558 -90.5106 81° East 471 542 23,200 -540 Descending Chicago Center
07:27PM 41.0769 -90.3375 81° East 473 544 23,000 -120 Descending Chicago Center
07:28PM 41.0956 -90.1686 82° East 463 533 23,000 -660 Level Chicago Center
07:29PM 41.1144 -89.9981 82° East 463 533 21,700 -2,100 Descending Chicago Center
07:30PM 41.1367 -89.8044 81° East 441 507 18,700 -2,700 Descending Chicago Center
07:31PM 41.1539 -89.6494 82° East 426 490 16,100 -1,980 Descending Chicago Center
07:32PM 41.1664 -89.4983 84° East 415 478 14,700 -1,020 Descending Chicago Center
07:33PM 41.1772 -89.3453 85° East 413 475 14,100 -300 Descending Chicago Center
07:34PM 41.1864 -89.1958 85° East 407 468 14,100 -360 Level Chicago Center
07:35PM 41.1967 -89.0511 85° East 404 465 13,400 -840 Descending Chicago Center
07:36PM 41.2072 -88.8811 85° East 391 450 12,400 -960 Descending Chicago Center
07:37PM 41.2136 -88.7453 86° East 375 432 11,500 -960 Descending Chicago Center
07:38PM 41.2222 -88.6172 85° East 353 406 10,500 -900 Descending Chicago Center
07:39PM 41.2386 -88.5064 79° East 316 364 9,700 -900 Descending Chicago Center
07:40PM 41.3064 -88.4561 29° Northeast 284 327 8,700 -1,020 Descending Chicago Center
07:41PM 41.3922 -88.4064 23° Northeast 279 321 7,700 -900 Descending Chicago Center
07:42PM 41.4481 -88.3431 40° Northeast 274 315 6,900 -840 Descending Chicago Center
07:43PM 41.4869 -88.2511 61° Northeast 281 323 6,000 -840 Descending Chicago Center
07:44PM 41.5267 -88.1603 60° Northeast 279 321 5,200 -540 Descending Chicago Center
07:45PM 41.5669 -88.0675 60° Northeast 283 326 5,000 -120 Descending Chicago Center
07:46PM 41.5722 -87.9633 86° East 280 322 5,000  Level Chicago Center
07:47PM 41.5753 -87.8614 88° East 276 318 5,000 -240 Level Chicago Center
07:49PM 41.5897 -87.7403 81° East 278 320 4,600 -660 Descending Chicago Center
07:50PM 41.6286 -87.6544 59° Northeast 275 316 3,700 -720 Descending Chicago Center
07:51PM 41.6775 -87.6119 33° Northeast 256 295 3,200 -780 Descending Chicago Center
07:51PM 41.7000 -87.6333 325° Northwest 209 241 2,700 -780 Descending Chicago TRACON
07:52PM 41.7333 -87.6833 312° West 184 212 2,300 -480 Descending Chicago TRACON
07:53PM 41.7667 -87.7000 340° North 157 181 1,900 -480 Descending Chicago TRACON
07:54PM 41.8000 -87.7000 360° North 133 153 1,400 -480 Descending Chicago TRACON